createdAt,value
2022-10-19T00:01:55.319Z,100788.72
2022-10-19T00:06:57.026Z,100792.84
2022-10-19T00:11:58.715Z,100789.00
2022-10-19T00:17:00.390Z,100788.69
2022-10-19T00:22:02.083Z,100789.97
2022-10-19T00:27:03.912Z,100803.72
2022-10-19T00:32:06.164Z,100807.03
2022-10-19T00:37:07.821Z,100799.53
2022-10-19T00:42:13.166Z,100803.50
2022-10-19T00:47:15.436Z,100807.28
2022-10-19T00:52:21.326Z,100799.41
2022-10-19T00:57:23.634Z,100804.22
2022-10-19T01:02:25.373Z,100806.44
2022-10-19T01:07:27.808Z,100803.47
2022-10-19T01:12:53.622Z,100800.38
2022-10-19T01:18:07.194Z,100788.94
2022-10-19T01:23:42.952Z,100779.03
2022-10-19T01:28:57.730Z,100783.47
2022-10-19T01:34:22.803Z,100779.06
2022-10-19T01:39:44.232Z,100784.72
2022-10-19T01:44:55.480Z,100773.06
2022-10-19T01:50:03.324Z,100775.63
2022-10-19T01:55:05.869Z,100780.75
2022-10-19T02:00:10.856Z,100782.28
2022-10-19T02:06:07.605Z,100789.13
2022-10-19T02:11:09.532Z,100794.06
2022-10-19T02:16:20.420Z,100793.63
2022-10-19T02:21:22.127Z,100784.53
2022-10-19T02:26:23.824Z,100785.44
2022-10-19T02:31:26.357Z,100769.31
2022-10-19T02:36:28.156Z,100774.94
2022-10-19T02:41:36.162Z,100791.63
2022-10-19T02:46:44.106Z,100776.69
2022-10-19T02:52:01.407Z,100789.81
2022-10-19T02:57:17.317Z,100777.63
2022-10-19T03:02:20.984Z,100795.44
2022-10-19T03:07:22.828Z,100779.03
2022-10-19T03:12:24.517Z,100784.09
2022-10-19T03:17:26.256Z,100774.50
2022-10-19T03:22:27.921Z,100760.88
2022-10-19T03:27:29.610Z,100764.56
2022-10-19T03:32:31.295Z,100759.31
2022-10-19T03:37:33.281Z,100762.31
2022-10-19T03:42:35.153Z,100773.19
2022-10-19T03:47:36.885Z,100777.59
2022-10-19T03:52:38.676Z,100790.69
2022-10-19T03:57:40.366Z,100794.88
2022-10-19T04:02:42.071Z,100787.41
2022-10-19T04:07:43.745Z,100801.81
2022-10-19T04:12:45.471Z,100800.97
2022-10-19T04:17:48.664Z,100806.84
2022-10-19T04:22:52.924Z,100805.03
2022-10-19T04:27:54.594Z,100807.91
2022-10-19T04:32:56.280Z,100807.16
2022-10-19T04:37:59.604Z,100810.25
2022-10-19T04:43:01.294Z,100814.78
2022-10-19T04:48:03.018Z,100811.75
2022-10-19T04:53:04.717Z,100818.50
2022-10-19T04:58:06.360Z,100818.81
2022-10-19T05:03:08.285Z,100819.19
2022-10-19T05:08:10.682Z,100818.78
2022-10-19T05:13:12.363Z,100819.94
2022-10-19T05:18:14.096Z,100814.75
2022-10-19T05:23:15.812Z,100816.53
2022-10-19T05:28:17.476Z,100817.34
2022-10-19T05:33:19.160Z,100824.56
2022-10-19T05:38:20.854Z,100825.50
2022-10-19T05:43:22.588Z,100822.72
2022-10-19T05:48:24.343Z,100823.25
2022-10-19T05:53:26.249Z,100838.41
2022-10-19T05:58:27.945Z,100838.16
2022-10-19T06:03:30.515Z,100843.41
2022-10-19T06:08:32.813Z,100852.66
2022-10-19T06:13:34.849Z,100841.53
2022-10-19T06:18:37.585Z,100845.09
2022-10-19T06:23:39.392Z,100843.38
2022-10-19T06:28:43.258Z,100852.31
2022-10-19T06:33:48.645Z,100859.81
2022-10-19T06:38:53.201Z,100854.22
2022-10-19T06:43:55.934Z,100861.75
2022-10-19T06:48:59.772Z,100866.16
2022-10-19T06:54:01.686Z,100872.75
2022-10-19T06:59:03.748Z,100870.03
2022-10-19T07:04:05.599Z,100877.19
2022-10-19T07:09:07.329Z,100871.94
2022-10-19T07:14:09.270Z,100879.03
2022-10-19T07:19:11.801Z,100890.47
2022-10-19T07:24:13.500Z,100887.84
2022-10-19T07:29:15.333Z,100885.69
2022-10-19T07:34:17.093Z,100886.88
2022-10-19T07:39:18.843Z,100891.91
2022-10-19T07:44:20.533Z,100905.69
2022-10-19T07:49:22.508Z,100904.13
2022-10-19T07:54:24.710Z,100900.56
2022-10-19T07:59:26.398Z,100907.19
2022-10-19T08:04:59.593Z,100911.44
2022-10-19T08:09:54.098Z,100905.81
2022-10-19T08:14:56.129Z,100919.94
2022-10-19T08:19:57.829Z,100921.41
2022-10-19T08:24:59.548Z,100928.56
2022-10-19T08:30:01.238Z,100925.09
2022-10-19T08:35:05.986Z,100933.66
2022-10-19T08:40:30.322Z,100930.66
2022-10-19T08:45:43.469Z,100924.81
2022-10-19T08:50:47.177Z,100930.03
2022-10-19T08:56:04.776Z,100917.41
2022-10-19T09:01:33.834Z,100912.09
2022-10-19T09:06:52.618Z,100913.03
2022-10-19T09:12:02.810Z,100908.41
2022-10-19T09:17:12.546Z,100911.28
2022-10-19T09:22:26.497Z,100909.09
2022-10-19T09:27:38.044Z,100919.22
2022-10-19T09:32:40.099Z,100911.50
2022-10-19T09:37:48.527Z,100915.63
2022-10-19T09:43:03.051Z,100908.34
2022-10-19T09:48:16.809Z,100914.75
2022-10-19T09:53:21.396Z,100918.44
2022-10-19T09:58:29.140Z,100910.97
2022-10-19T10:03:40.549Z,100919.53
2022-10-19T10:08:48.719Z,100925.34
2022-10-19T10:13:53.091Z,100925.22
2022-10-19T10:19:05.837Z,100919.50
2022-10-19T10:24:10.348Z,100916.72
2022-10-19T10:29:30.554Z,100915.56
2022-10-19T10:34:46.080Z,100915.63
2022-10-19T10:39:57.898Z,100906.50
2022-10-19T10:45:03.725Z,100919.97
2022-10-19T10:50:06.994Z,100921.50
2022-10-19T10:55:08.672Z,100920.22
2022-10-19T11:00:20.428Z,100918.66
2022-10-19T11:05:32.272Z,100925.50
2022-10-19T11:10:39.462Z,100929.34
2022-10-19T11:16:28.844Z,100931.19
2022-10-19T11:21:44.634Z,100928.53
2022-10-19T11:27:07.018Z,100926.34
2022-10-19T11:32:29.036Z,100928.75
2022-10-19T11:38:18.012Z,100914.22
2022-10-19T11:43:48.790Z,100918.03
2022-10-19T11:49:07.077Z,100912.41
2022-10-19T11:54:36.404Z,100912.44
2022-10-19T12:00:08.177Z,100910.19
2022-10-19T12:05:43.846Z,100907.19
2022-10-19T12:11:28.102Z,100899.84
2022-10-19T12:16:38.037Z,100890.66
2022-10-19T12:21:43.246Z,100887.94
2022-10-19T12:26:46.256Z,100886.41
2022-10-19T12:31:50.109Z,100885.63
2022-10-19T12:37:13.141Z,100882.50
2022-10-19T12:42:43.008Z,100891.31
2022-10-19T12:48:11.274Z,100884.53
2022-10-19T12:53:35.922Z,100886.25
2022-10-19T12:58:46.678Z,100888.56
2022-10-19T13:03:53.993Z,100875.22
2022-10-19T13:08:59.646Z,100882.66
2022-10-19T13:14:07.611Z,100876.00
2022-10-19T13:19:15.090Z,100866.47
2022-10-19T13:24:26.015Z,100865.63
2022-10-19T13:29:39.368Z,100860.66
2022-10-19T13:34:41.349Z,100854.44
2022-10-19T13:39:43.077Z,100866.50
2022-10-19T13:44:45.972Z,100859.91
2022-10-19T13:50:21.011Z,100863.91
2022-10-19T13:55:48.552Z,100856.28
2022-10-19T14:01:36.502Z,100862.56
2022-10-19T14:07:02.479Z,100850.16
2022-10-19T14:12:25.107Z,100846.72
2022-10-19T14:17:34.058Z,100850.22
2022-10-19T14:22:36.416Z,100844.84
2022-10-19T14:27:38.701Z,100836.03
2022-10-19T14:37:47.360Z,100835.50
2022-10-19T14:42:49.506Z,100836.03
2022-10-19T14:47:56.857Z,100838.63
2022-10-19T14:53:18.960Z,100835.66
2022-10-19T14:58:23.754Z,100836.91
2022-10-19T15:03:30.414Z,100833.41
2022-10-19T15:08:43.792Z,100831.41
2022-10-19T15:13:45.631Z,100827.78
2022-10-19T15:18:50.106Z,100825.25
2022-10-19T15:23:52.725Z,100820.66
2022-10-19T15:29:07.122Z,100830.16
2022-10-19T15:34:23.449Z,100832.38
2022-10-19T15:39:38.930Z,100823.50
2022-10-19T15:44:44.139Z,100817.59
2022-10-19T15:49:45.897Z,100814.75
2022-10-19T15:54:51.596Z,100813.34
2022-10-19T15:59:54.594Z,100811.00
2022-10-19T16:04:56.397Z,100802.41
2022-10-19T16:09:58.790Z,100806.81
2022-10-19T16:15:00.520Z,100797.94
2022-10-19T16:20:02.190Z,100810.69
2022-10-19T16:25:04.446Z,100810.50
2022-10-19T16:30:07.071Z,100812.19
2022-10-19T16:35:10.108Z,100820.38
2022-10-19T16:40:12.131Z,100818.41
2022-10-19T16:45:13.804Z,100807.75
2022-10-19T16:50:15.548Z,100814.63
2022-10-19T16:55:17.311Z,100824.13
2022-10-19T17:00:19.077Z,100829.50
2022-10-19T17:05:20.790Z,100835.03
2022-10-19T17:10:22.471Z,100835.97
2022-10-19T17:15:41.994Z,100835.00
2022-10-19T17:20:44.845Z,100841.56
2022-10-19T17:25:47.973Z,100848.84
2022-10-19T17:30:50.244Z,100845.75
2022-10-19T17:35:51.984Z,100857.59
2022-10-19T17:40:53.791Z,100856.81
2022-10-19T17:46:00.214Z,100859.75
2022-10-19T17:51:05.575Z,100866.31
2022-10-19T17:56:07.875Z,100869.47
2022-10-19T18:01:10.571Z,100871.28
2022-10-19T18:06:35.669Z,100866.34
2022-10-19T18:11:41.249Z,100862.88
2022-10-19T18:16:45.752Z,100869.69
2022-10-19T18:21:47.850Z,100875.63
2022-10-19T18:26:51.158Z,100868.50
2022-10-19T18:31:53.781Z,100870.84
2022-10-19T18:36:55.820Z,100877.50
2022-10-19T18:41:57.548Z,100869.09
2022-10-19T18:46:59.221Z,100855.13
2022-10-19T18:52:00.884Z,100857.69
2022-10-19T18:57:02.589Z,100859.97
2022-10-19T19:02:05.869Z,100852.66
2022-10-19T19:07:07.636Z,100852.03
2022-10-19T19:12:09.759Z,100851.09
2022-10-19T19:17:11.507Z,100847.31
2022-10-19T19:22:13.201Z,100848.50
2022-10-19T19:27:14.884Z,100843.84
2022-10-19T19:32:18.849Z,100848.81
2022-10-19T19:37:20.506Z,100843.25
2022-10-19T19:42:25.674Z,100854.78
2022-10-19T19:47:29.523Z,100850.13
2022-10-19T19:52:31.187Z,100860.38
2022-10-19T19:57:33.102Z,100856.00
2022-10-19T20:02:37.377Z,100863.63
2022-10-19T20:07:39.075Z,100858.06
2022-10-19T20:12:40.742Z,100866.88
2022-10-19T20:17:42.866Z,100864.44
2022-10-19T20:22:48.499Z,100872.53
2022-10-19T20:27:50.221Z,100877.59
2022-10-19T20:32:54.751Z,100872.03
2022-10-19T20:37:58.550Z,100875.59
2022-10-19T20:43:00.261Z,100869.34
2022-10-19T20:48:01.924Z,100867.94
2022-10-19T20:53:03.613Z,100871.06
2022-10-19T20:58:05.298Z,100873.38
2022-10-19T21:03:06.986Z,100870.78
2022-10-19T21:08:09.578Z,100878.94
2022-10-19T21:13:11.277Z,100876.31
2022-10-19T21:18:12.924Z,100872.00
2022-10-19T21:23:14.714Z,100859.47
2022-10-19T21:28:16.384Z,100864.13
2022-10-19T21:33:18.207Z,100860.66
2022-10-19T21:38:19.871Z,100859.38
2022-10-19T21:43:21.535Z,100853.41
2022-10-19T21:48:23.671Z,100843.38
2022-10-19T21:53:25.568Z,100835.50
2022-10-19T21:58:27.244Z,100837.75
2022-10-19T22:03:28.896Z,100831.34
2022-10-19T22:08:30.669Z,100833.69
2022-10-19T22:13:33.008Z,100824.97
2022-10-19T22:18:34.824Z,100818.88
2022-10-19T22:23:36.517Z,100820.72
2022-10-19T22:28:38.183Z,100806.31
2022-10-19T22:33:40.311Z,100816.66
2022-10-19T22:38:42.429Z,100794.97
2022-10-19T22:43:44.129Z,100794.84
2022-10-19T22:48:45.821Z,100805.63
2022-10-19T22:53:47.500Z,100803.69
2022-10-19T22:58:49.616Z,100798.44
2022-10-19T23:03:51.261Z,100795.78
2022-10-19T23:08:53.865Z,100800.16
2022-10-19T23:13:55.589Z,100789.81
2022-10-19T23:18:57.253Z,100794.19
2022-10-19T23:23:58.981Z,100788.69
2022-10-19T23:29:00.611Z,100799.41
2022-10-19T23:34:02.254Z,100790.75
2022-10-19T23:39:04.063Z,100788.16
2022-10-19T23:44:05.780Z,100790.97
2022-10-19T23:49:07.599Z,100781.44
2022-10-19T23:54:09.340Z,100780.88
2022-10-19T23:59:11.128Z,100769.69
